createdAt,value
2022-11-27T00:00:35.298Z,100437.45
2022-11-27T00:05:59.479Z,100436.61
2022-11-27T00:11:10.531Z,100444.45
2022-11-27T00:16:15.873Z,100445.73
2022-11-27T00:21:22.559Z,100438.36
2022-11-27T00:26:30.882Z,100431.35
2022-11-27T00:31:37.860Z,100433.83
2022-11-27T00:36:46.549Z,100442.71
2022-11-27T00:41:52.084Z,100439.66
2022-11-27T00:46:56.205Z,100435.48
2022-11-27T00:51:59.984Z,100435.59
2022-11-27T00:57:04.476Z,100434.27
2022-11-27T01:02:08.319Z,100433.19
2022-11-27T01:07:12.623Z,100429.89
2022-11-27T01:12:16.669Z,100423.11
2022-11-27T01:17:20.442Z,100425.35
2022-11-27T01:22:24.319Z,100425.06
2022-11-27T01:27:28.209Z,100417.54
2022-11-27T01:32:31.716Z,100418.16
2022-11-27T01:37:39.378Z,100421.81
2022-11-27T01:42:43.076Z,100419.16
2022-11-27T01:47:50.702Z,100416.11
2022-11-27T01:52:59.011Z,100412.73
2022-11-27T01:58:08.235Z,100411.34
2022-11-27T02:03:12.326Z,100414.95
2022-11-27T02:08:17.195Z,100415.89
2022-11-27T02:13:29.559Z,100416.48
2022-11-27T02:18:43.015Z,100418.30
2022-11-27T02:24:01.578Z,100417.80
2022-11-27T02:29:08.484Z,100421.33
2022-11-27T02:34:22.708Z,100423.00
2022-11-27T02:39:37.687Z,100421.19
2022-11-27T02:44:46.426Z,100428.10
2022-11-27T02:49:56.721Z,100434.39
2022-11-27T02:55:05.623Z,100437.05
2022-11-27T03:00:12.572Z,100439.79
2022-11-27T03:05:20.836Z,100442.98
2022-11-27T03:10:34.047Z,100448.48
2022-11-27T03:15:45.840Z,100445.22
2022-11-27T03:20:56.943Z,100443.22
2022-11-27T03:26:00.809Z,100450.72
2022-11-27T03:31:04.961Z,100449.66
2022-11-27T03:36:14.861Z,100442.52
2022-11-27T03:41:25.302Z,100443.36
2022-11-27T03:46:40.091Z,100443.03
2022-11-27T03:51:54.176Z,100448.00
2022-11-27T03:57:06.600Z,100450.27
2022-11-27T04:02:14.339Z,100451.65
2022-11-27T04:07:18.964Z,100451.12
2022-11-27T04:12:22.656Z,100452.52
2022-11-27T04:17:26.241Z,100447.52
2022-11-27T04:22:29.789Z,100447.25
2022-11-27T04:27:33.820Z,100447.77
2022-11-27T04:32:37.541Z,100455.20
2022-11-27T04:37:41.184Z,100457.06
2022-11-27T04:42:44.773Z,100460.63
2022-11-27T04:47:48.850Z,100451.23
2022-11-27T04:52:52.757Z,100449.27
2022-11-27T04:57:56.499Z,100441.69
2022-11-27T05:03:00.665Z,100436.29
2022-11-27T05:08:04.961Z,100442.09
2022-11-27T05:13:08.591Z,100441.91
2022-11-27T05:18:12.309Z,100434.77
2022-11-27T05:23:15.756Z,100442.85
2022-11-27T05:28:26.674Z,100438.40
2022-11-27T05:33:31.132Z,100439.81
2022-11-27T05:38:35.251Z,100449.88
2022-11-27T05:43:39.016Z,100459.57
2022-11-27T05:48:42.655Z,100464.88
2022-11-27T05:53:46.788Z,100463.20
2022-11-27T05:58:51.626Z,100459.98
2022-11-27T06:03:55.678Z,100446.89
2022-11-27T06:09:00.307Z,100443.29
2022-11-27T06:14:06.826Z,100441.25
2022-11-27T06:19:10.375Z,100440.70
2022-11-27T06:24:14.152Z,100447.19
2022-11-27T06:29:17.978Z,100450.42
2022-11-27T06:34:21.613Z,100453.82
2022-11-27T06:39:25.762Z,100450.73
2022-11-27T06:44:29.425Z,100443.76
2022-11-27T06:49:33.179Z,100438.18
2022-11-27T06:54:36.925Z,100442.67
2022-11-27T06:59:40.838Z,100442.66
2022-11-27T07:04:44.786Z,100438.44
2022-11-27T07:09:48.698Z,100437.50
2022-11-27T07:14:52.137Z,100436.96
2022-11-27T07:19:55.755Z,100433.82
2022-11-27T07:24:59.259Z,100438.70
2022-11-27T07:30:03.330Z,100438.86
2022-11-27T07:35:08.892Z,100440.00
2022-11-27T07:40:15.022Z,100446.26
2022-11-27T07:45:18.886Z,100448.23
2022-11-27T07:50:22.605Z,100444.04
2022-11-27T07:55:26.230Z,100452.63
2022-11-27T08:00:30.906Z,100455.67
2022-11-27T08:05:39.667Z,100446.38
2022-11-27T08:10:44.400Z,100454.02
2022-11-27T08:15:48.411Z,100460.21
2022-11-27T08:20:52.819Z,100456.49
2022-11-27T08:25:57.097Z,100449.80
2022-11-27T08:31:04.323Z,100446.80
2022-11-27T08:36:14.980Z,100448.89
2022-11-27T08:41:22.333Z,100441.10
2022-11-27T08:46:26.258Z,100440.22
2022-11-27T08:51:30.316Z,100441.42
2022-11-27T08:56:34.299Z,100439.42
2022-11-27T09:01:38.731Z,100443.80
2022-11-27T09:06:43.835Z,100444.65
2022-11-27T09:11:48.056Z,100444.77
2022-11-27T09:16:53.666Z,100441.31
2022-11-27T09:21:58.144Z,100441.05
2022-11-27T09:27:02.988Z,100441.30
2022-11-27T09:32:06.973Z,100446.68
2022-11-27T09:37:11.547Z,100447.63
2022-11-27T09:42:29.769Z,100448.46
2022-11-27T09:51:46.760Z,100451.27
2022-11-27T09:56:56.467Z,100454.67
2022-11-27T10:02:03.849Z,100451.15
2022-11-27T10:07:22.409Z,100442.83
2022-11-27T10:12:37.337Z,100435.27
2022-11-27T10:17:52.478Z,100428.35
2022-11-27T10:23:06.563Z,100418.31
2022-11-27T10:28:28.171Z,100420.15
2022-11-27T10:33:43.204Z,100418.20
2022-11-27T10:38:52.169Z,100416.66
2022-11-27T10:44:12.785Z,100406.17
2022-11-27T10:49:20.999Z,100402.92
2022-11-27T10:54:32.588Z,100404.86
2022-11-27T10:59:45.660Z,100406.56
2022-11-27T11:05:16.276Z,100398.27
2022-11-27T11:10:30.143Z,100389.23
2022-11-27T11:15:35.733Z,100385.55
2022-11-27T11:20:48.351Z,100371.38
2022-11-27T11:25:59.728Z,100368.09
2022-11-27T11:31:14.125Z,100369.52
2022-11-27T11:36:22.738Z,100369.00
2022-11-27T11:41:39.771Z,100361.48
2022-11-27T11:46:55.161Z,100358.61
2022-11-27T11:52:22.053Z,100356.07
2022-11-27T11:57:53.051Z,100360.54
2022-11-27T12:03:26.558Z,100359.42
2022-11-27T12:08:47.221Z,100349.16
2022-11-27T12:14:11.516Z,100350.13
2022-11-27T12:19:40.831Z,100352.08
2022-11-27T12:24:57.105Z,100347.86
2022-11-27T12:30:11.698Z,100343.00
2022-11-27T12:35:44.430Z,100338.11
2022-11-27T12:41:13.440Z,100338.73
2022-11-27T12:51:52.196Z,100339.08
2022-11-27T12:57:02.675Z,100338.33
2022-11-27T13:02:24.861Z,100337.87
2022-11-27T13:07:40.498Z,100329.07
2022-11-27T13:12:56.724Z,100323.71
2022-11-27T13:18:14.891Z,100321.70
2022-11-27T13:23:22.708Z,100313.48
2022-11-27T13:28:38.356Z,100314.89
2022-11-27T13:33:47.723Z,100319.14
2022-11-27T13:39:01.395Z,100320.34
2022-11-27T13:44:23.246Z,100314.80
2022-11-27T13:49:33.202Z,100317.20
2022-11-27T13:54:52.490Z,100312.67
2022-11-27T14:00:04.084Z,100311.93
2022-11-27T14:05:14.378Z,100318.81
2022-11-27T14:10:25.658Z,100310.88
2022-11-27T14:15:35.606Z,100307.61
2022-11-27T14:20:51.001Z,100306.80
2022-11-27T14:26:14.702Z,100309.83
2022-11-27T14:31:40.736Z,100306.66
2022-11-27T14:36:52.755Z,100311.38
2022-11-27T14:42:01.785Z,100308.52
2022-11-27T14:47:18.719Z,100305.02
2022-11-27T14:52:27.860Z,100299.77
2022-11-27T14:57:35.487Z,100296.64
2022-11-27T15:02:43.097Z,100293.82
2022-11-27T15:07:53.692Z,100285.61
2022-11-27T15:13:03.532Z,100278.63
2022-11-27T15:18:20.566Z,100280.77
2022-11-27T15:23:31.789Z,100280.05
2022-11-27T15:28:41.455Z,100275.14
2022-11-27T15:33:58.714Z,100276.44
2022-11-27T15:39:22.617Z,100280.73
2022-11-27T15:44:32.960Z,100278.86
2022-11-27T15:49:40.551Z,100279.73
2022-11-27T15:54:48.183Z,100281.81
2022-11-27T15:59:55.555Z,100274.70
2022-11-27T16:05:01.195Z,100269.15
2022-11-27T16:10:10.905Z,100271.44
2022-11-27T16:15:18.531Z,100269.77
2022-11-27T16:20:26.046Z,100267.64
2022-11-27T16:25:33.324Z,100271.93
2022-11-27T16:30:40.462Z,100271.98
2022-11-27T16:35:47.674Z,100264.69
2022-11-27T16:41:00.493Z,100258.94
2022-11-27T16:51:45.419Z,100252.38
2022-11-27T16:56:53.081Z,100246.57
2022-11-27T17:02:00.838Z,100248.44
2022-11-27T17:07:08.321Z,100247.80
2022-11-27T17:12:16.471Z,100248.23
2022-11-27T17:17:24.514Z,100247.14
2022-11-27T17:22:32.789Z,100239.07
2022-11-27T17:27:39.907Z,100234.60
2022-11-27T17:32:45.488Z,100232.75
2022-11-27T17:37:52.788Z,100226.98
2022-11-27T17:42:59.873Z,100222.01
2022-11-27T17:48:19.863Z,100220.58
2022-11-27T17:53:35.295Z,100223.48
2022-11-27T17:58:42.606Z,100215.43
2022-11-27T18:03:51.059Z,100200.30
2022-11-27T18:08:59.417Z,100196.77
2022-11-27T18:14:07.026Z,100189.52
2022-11-27T18:19:15.056Z,100189.09
2022-11-27T18:24:23.899Z,100185.23
2022-11-27T18:29:32.459Z,100175.48
2022-11-27T18:34:39.984Z,100170.02
2022-11-27T18:39:47.845Z,100164.88
2022-11-27T18:44:55.561Z,100158.48
2022-11-27T18:50:03.468Z,100159.60
2022-11-27T18:55:11.952Z,100149.80
2022-11-27T19:00:21.330Z,100149.55
2022-11-27T19:05:28.456Z,100152.42
2022-11-27T19:10:35.667Z,100158.60
2022-11-27T19:15:41.628Z,100163.71
2022-11-27T19:20:49.302Z,100173.20
2022-11-27T19:25:57.040Z,100169.38
2022-11-27T19:31:05.430Z,100172.84
2022-11-27T19:36:15.147Z,100168.09
2022-11-27T19:41:22.973Z,100167.39
2022-11-27T19:46:33.000Z,100163.28
2022-11-27T19:51:42.263Z,100154.02
2022-11-27T19:56:51.741Z,100149.14
2022-11-27T20:01:59.144Z,100145.28
2022-11-27T20:07:07.000Z,100138.03
2022-11-27T20:12:15.098Z,100136.42
2022-11-27T20:17:22.866Z,100130.96
2022-11-27T20:22:30.274Z,100122.77
2022-11-27T20:27:38.403Z,100118.02
2022-11-27T20:32:46.003Z,100107.64
2022-11-27T20:37:53.461Z,100100.09
2022-11-27T20:43:01.224Z,100098.00
2022-11-27T20:48:09.832Z,100098.59
2022-11-27T20:53:17.794Z,100097.08
2022-11-27T20:58:25.926Z,100094.08
2022-11-27T21:03:33.635Z,100096.54
2022-11-27T21:08:41.217Z,100092.29
2022-11-27T21:13:50.844Z,100097.96
2022-11-27T21:19:00.024Z,100100.14
2022-11-27T21:24:10.805Z,100093.84
2022-11-27T21:29:25.090Z,100090.90
2022-11-27T21:34:33.453Z,100088.92
2022-11-27T21:39:41.691Z,100088.29
2022-11-27T21:44:49.594Z,100084.09
2022-11-27T21:49:56.958Z,100080.36
2022-11-27T21:55:04.663Z,100078.96
2022-11-27T22:00:15.342Z,100081.95
2022-11-27T22:05:22.872Z,100078.20
2022-11-27T22:10:30.149Z,100067.85
2022-11-27T22:15:38.255Z,100066.34
2022-11-27T22:20:45.672Z,100062.79
2022-11-27T22:25:53.120Z,100058.61
2022-11-27T22:30:59.034Z,100060.05
2022-11-27T22:36:15.376Z,100053.54
2022-11-27T22:41:25.248Z,100049.05
2022-11-27T22:46:35.618Z,100033.48
2022-11-27T22:51:43.274Z,100031.60
2022-11-27T22:56:51.002Z,100034.10
2022-11-27T23:01:58.359Z,100023.30
2022-11-27T23:07:06.566Z,100008.09
2022-11-27T23:12:14.704Z,99998.75
2022-11-27T23:17:22.752Z,99991.00
2022-11-27T23:22:30.087Z,99989.36
2022-11-27T23:27:37.586Z,99996.34
2022-11-27T23:32:45.419Z,99994.36
2022-11-27T23:37:52.749Z,99984.39
2022-11-27T23:42:59.704Z,99987.73
2022-11-27T23:48:09.357Z,99991.48
2022-11-27T23:53:16.359Z,99990.40
2022-11-27T23:58:24.912Z,99976.86
